UNAA METAR and TAF | Updated Today

UNAA METAR

Abakan Airport

Observation time: 20 min. ago

UNAA 251900Z 29001MPS CAVOK 18/09 Q1011 R02/CLRD65 NOSIG RMK QFE736

Need help? Read our tutorial on how to read METARs or read the parsed version below.

Abakan Airport (UNAA) METAR

  • Weather conditions on Wed, 25 May 2022 19:00:00 +0000 (20 min. ago):
  • Present conditions: Dry
  • Clouds: Clear skies
  • Visibility: Greater than 10 km
  • Wind: 290 degrees at 1 knots
  • Temperature: 18 celsius
  • Dew point: 9 celsius
  • Pressure: 1011 millibars
  • Remarks: QFE736


Useful to know...

UNAA TAF

Abakan Airport

TAF UNAA 251648Z 2518/2618 35003G08MPS CAVOK TEMPO 2603/2612 01008G14MPS
Observation time: 2:32 hr. ago
Need help? Read our tutorial on how to read TAFs or read the parsed version below.

Parsed version of TAF for Abakan Airport (UNAA)

  • From 25 May at 18:00 UTC, to day 26 of the month at 18:00 UTC
  • Visibility: Greater than 10 km
  • Wind: 350 degrees at 3
  • Expected to arise temporarily, from 26 May at 03:00 UTC, to day 26 of the month at 12:00 UTC
  • Wind: 10 degrees at 8

Airports near UNAA